Tuktoyaktuk Airport
CYUB : now visible

Airfield :











YOU CAN JOIN US ON...

 
LOGIN :

Register | Disclaimer

   EN    FR    IT 

 









Legend :    VFR   Marginal VFR   IFR   Intensive IFR   Very Intensive IFR
Visi :
Ceiling :
>= 8 km
>= 3000ft
5 to 8 km
1000 to 3000 ft
1500m to 5 km
500 to 1000 ft
800 to 1500m
200 to 500 ft
< 800m
< 200 ft
Symbols :   Thunderstorms  Fog  Heavy snow  Heavy precipitations  Wind > 20 kt






- Airport Elevation : 15 ft
- IATA code : YUB


CYUB - Tuktoyaktuk

CURRENT METAR :
  • 131500Z 21007KT 7SM SCT110 20/14 A2966 RMK AC3 SLP045 DENSITY ALT 900FT

EXPIRED METARs :
  • 131400Z 18006KT 7SM SCT100 17/12 A2966 RMK AC3 SLP048 DENSITY ALT 500FT
  • 131300Z 17005KT 7SM FEW100 16/12 A2967 RMK AC2 SLP050 DENSITY ALT 400FT

TAF TAF CYUB
Valid from the 13 at 15:00 until the 14 at 03:00 UTC


131440Z 1315/1403 18006KT P6SM SCT100
TEMPO 1315/1317 BKN100
BECMG 1401/1403 10008KT RMK NXT FCST BY 131900Z
CZEG FIR / North America



MET'MAP, your aeronautical weather chart ! - Copyright ORBIFLY December 2007 - Disclaimer

ORBIFLY MET'MAP TEAM :

Programming & Development : Alexandra Zaïnal
Original concept : Baudouin d'Aumeries
Technical & hardware support : Manuel Goepfert
Assistance : Marc-Olivier Méhu




SOURCES & CREDITS :

   NOAA       Earth
Advisory